sensor_id;sensor_type;location;lat;lon;timestamp;pressure;altitude;pressure_sealevel;temperature
67758;BMP180;54562;47.620;18.786;2022-09-25T00:02:06;98305.00;;;12.60
67758;BMP180;54562;47.620;18.786;2022-09-25T00:05:15;98295.20;;;12.60
67758;BMP180;54562;47.620;18.786;2022-09-25T00:08:24;98299.40;;;12.54
67758;BMP180;54562;47.620;18.786;2022-09-25T00:11:34;98296.20;;;12.50
67758;BMP180;54562;47.620;18.786;2022-09-25T00:14:49;98297.20;;;12.50
67758;BMP180;54562;47.620;18.786;2022-09-25T00:17:59;98299.20;;;12.50
67758;BMP180;54562;47.620;18.786;2022-09-25T00:21:08;98289.60;;;12.46
67758;BMP180;54562;47.620;18.786;2022-09-25T00:24:19;98282.60;;;12.50
67758;BMP180;54562;47.620;18.786;2022-09-25T00:27:28;98279.60;;;12.50
67758;BMP180;54562;47.620;18.786;2022-09-25T00:30:40;98276.80;;;12.50
67758;BMP180;54562;47.620;18.786;2022-09-25T00:33:48;98279.00;;;12.50
67758;BMP180;54562;47.620;18.786;2022-09-25T00:36:58;98271.80;;;12.60
67758;BMP180;54562;47.620;18.786;2022-09-25T00:40:08;98267.00;;;12.60
67758;BMP180;54562;47.620;18.786;2022-09-25T00:43:35;98261.20;;;12.60
67758;BMP180;54562;47.620;18.786;2022-09-25T00:46:44;98263.00;;;12.70
67758;BMP180;54562;47.620;18.786;2022-09-25T00:49:57;98265.00;;;12.70
67758;BMP180;54562;47.620;18.786;2022-09-25T00:53:13;98269.80;;;12.70
67758;BMP180;54562;47.620;18.786;2022-09-25T00:56:23;98272.80;;;12.70
67758;BMP180;54562;47.620;18.786;2022-09-25T00:59:35;98272.60;;;12.70
67758;BMP180;54562;47.620;18.786;2022-09-25T01:02:48;98270.80;;;12.70
67758;BMP180;54562;47.620;18.786;2022-09-25T01:06:01;98263.60;;;12.70
67758;BMP180;54562;47.620;18.786;2022-09-25T01:09:08;98268.40;;;12.70
67758;BMP180;54562;47.620;18.786;2022-09-25T01:12:16;98258.60;;;12.70
67758;BMP180;54562;47.620;18.786;2022-09-25T01:15:33;98256.80;;;12.70
67758;BMP180;54562;47.620;18.786;2022-09-25T01:19:02;98253.80;;;12.70
67758;BMP180;54562;47.620;18.786;2022-09-25T01:22:25;98251.60;;;12.70
67758;BMP180;54562;47.620;18.786;2022-09-25T01:25:59;98256.80;;;12.70
67758;BMP180;54562;47.620;18.786;2022-09-25T01:29:15;98262.20;;;12.70
67758;BMP180;54562;47.620;18.786;2022-09-25T01:32:31;98266.60;;;12.70
67758;BMP180;54562;47.620;18.786;2022-09-25T01:35:48;98262.20;;;12.70
67758;BMP180;54562;47.620;18.786;2022-09-25T01:39:08;98260.00;;;12.70
67758;BMP180;54562;47.620;18.786;2022-09-25T01:42:23;98256.60;;;12.70
67758;BMP180;54562;47.620;18.786;2022-09-25T01:45:39;98245.20;;;12.70
67758;BMP180;54562;47.620;18.786;2022-09-25T01:48:54;98242.80;;;12.60
67758;BMP180;54562;47.620;18.786;2022-09-25T01:52:09;98243.60;;;12.50
67758;BMP180;54562;47.620;18.786;2022-09-25T01:55:23;98249.20;;;12.38
67758;BMP180;54562;47.620;18.786;2022-09-25T01:58:40;98248.20;;;12.20
67758;BMP180;54562;47.620;18.786;2022-09-25T02:01:51;98241.00;;;12.02
67758;BMP180;54562;47.620;18.786;2022-09-25T02:05:06;98237.40;;;11.90
67758;BMP180;54562;47.620;18.786;2022-09-25T02:08:23;98242.40;;;11.80
67758;BMP180;54562;47.620;18.786;2022-09-25T02:11:38;98245.40;;;11.70
67758;BMP180;54562;47.620;18.786;2022-09-25T02:14:53;98252.20;;;11.60
67758;BMP180;54562;47.620;18.786;2022-09-25T02:18:04;98258.20;;;11.50
67758;BMP180;54562;47.620;18.786;2022-09-25T02:21:43;98258.80;;;11.40
67758;BMP180;54562;47.620;18.786;2022-09-25T02:25:05;98259.80;;;11.30
67758;BMP180;54562;47.620;18.786;2022-09-25T02:28:16;98261.40;;;11.20
67758;BMP180;54562;47.620;18.786;2022-09-25T02:31:29;98265.00;;;11.20
67758;BMP180;54562;47.620;18.786;2022-09-25T02:34:42;98256.80;;;11.10
67758;BMP180;54562;47.620;18.786;2022-09-25T02:37:50;98254.60;;;11.10
67758;BMP180;54562;47.620;18.786;2022-09-25T02:41:08;98251.80;;;11.02
67758;BMP180;54562;47.620;18.786;2022-09-25T02:44:33;98251.40;;;11.00
67758;BMP180;54562;47.620;18.786;2022-09-25T02:48:00;98250.40;;;11.00
67758;BMP180;54562;47.620;18.786;2022-09-25T02:51:22;98244.80;;;11.00
67758;BMP180;54562;47.620;18.786;2022-09-25T02:54:43;98241.60;;;10.96
67758;BMP180;54562;47.620;18.786;2022-09-25T02:57:57;98243.00;;;10.90
67758;BMP180;54562;47.620;18.786;2022-09-25T03:01:11;98240.40;;;10.90
67758;BMP180;54562;47.620;18.786;2022-09-25T03:04:22;98231.60;;;10.80
67758;BMP180;54562;47.620;18.786;2022-09-25T03:07:32;98227.60;;;10.74
67758;BMP180;54562;47.620;18.786;2022-09-25T03:11:01;98226.20;;;10.70
67758;BMP180;54562;47.620;18.786;2022-09-25T03:14:11;98225.40;;;10.62
67758;BMP180;54562;47.620;18.786;2022-09-25T03:17:20;98223.80;;;10.60
67758;BMP180;54562;47.620;18.786;2022-09-25T03:20:29;98229.20;;;10.52
67758;BMP180;54562;47.620;18.786;2022-09-25T03:23:37;98222.80;;;10.50
67758;BMP180;54562;47.620;18.786;2022-09-25T03:26:45;98219.40;;;10.50
67758;BMP180;54562;47.620;18.786;2022-09-25T03:29:54;98217.00;;;10.40
67758;BMP180;54562;47.620;18.786;2022-09-25T03:33:02;98213.60;;;10.40
67758;BMP180;54562;47.620;18.786;2022-09-25T03:36:14;98218.80;;;10.40
67758;BMP180;54562;47.620;18.786;2022-09-25T03:39:24;98224.80;;;10.40
67758;BMP180;54562;47.620;18.786;2022-09-25T03:42:33;98219.00;;;10.40
67758;BMP180;54562;47.620;18.786;2022-09-25T03:45:43;98218.80;;;10.40
67758;BMP180;54562;47.620;18.786;2022-09-25T03:48:54;98226.20;;;10.40
67758;BMP180;54562;47.620;18.786;2022-09-25T03:52:03;98236.20;;;10.40
67758;BMP180;54562;47.620;18.786;2022-09-25T03:55:11;98247.20;;;10.40
67758;BMP180;54562;47.620;18.786;2022-09-25T03:58:20;98254.40;;;10.40
67758;BMP180;54562;47.620;18.786;2022-09-25T04:01:30;98243.80;;;10.40
67758;BMP180;54562;47.620;18.786;2022-09-25T04:04:38;98247.00;;;10.46
67758;BMP180;54562;47.620;18.786;2022-09-25T04:07:46;98241.60;;;10.48
67758;BMP180;54562;47.620;18.786;2022-09-25T04:10:56;98232.00;;;10.50
67758;BMP180;54562;47.620;18.786;2022-09-25T04:14:06;98235.40;;;10.50
67758;BMP180;54562;47.620;18.786;2022-09-25T04:17:14;98239.20;;;10.50
67758;BMP180;54562;47.620;18.786;2022-09-25T04:20:22;98229.60;;;10.50
67758;BMP180;54562;47.620;18.786;2022-09-25T04:23:32;98229.20;;;10.56
67758;BMP180;54562;47.620;18.786;2022-09-25T04:26:40;98226.00;;;10.60
67758;BMP180;54562;47.620;18.786;2022-09-25T04:29:49;98233.80;;;10.60
67758;BMP180;54562;47.620;18.786;2022-09-25T04:32:58;98232.80;;;10.60
67758;BMP180;54562;47.620;18.786;2022-09-25T04:36:24;98234.40;;;10.60
67758;BMP180;54562;47.620;18.786;2022-09-25T04:39:32;98230.80;;;10.60
67758;BMP180;54562;47.620;18.786;2022-09-25T04:42:40;98238.40;;;10.60
67758;BMP180;54562;47.620;18.786;2022-09-25T04:45:49;98235.80;;;10.60
67758;BMP180;54562;47.620;18.786;2022-09-25T04:48:58;98232.00;;;10.60
67758;BMP180;54562;47.620;18.786;2022-09-25T04:52:06;98229.80;;;10.60
67758;BMP180;54562;47.620;18.786;2022-09-25T04:55:14;98232.00;;;10.60
67758;BMP180;54562;47.620;18.786;2022-09-25T04:58:25;98230.00;;;10.60
67758;BMP180;54562;47.620;18.786;2022-09-25T05:01:33;98230.00;;;10.60
67758;BMP180;54562;47.620;18.786;2022-09-25T05:04:41;98230.20;;;10.60
67758;BMP180;54562;47.620;18.786;2022-09-25T05:07:59;98235.40;;;10.60
67758;BMP180;54562;47.620;18.786;2022-09-25T05:11:08;98230.60;;;10.60
67758;BMP180;54562;47.620;18.786;2022-09-25T05:14:17;98230.40;;;10.62
67758;BMP180;54562;47.620;18.786;2022-09-25T05:17:25;98228.20;;;10.62
67758;BMP180;54562;47.620;18.786;2022-09-25T05:20:33;98227.40;;;10.60
67758;BMP180;54562;47.620;18.786;2022-09-25T05:23:41;98235.40;;;10.60
67758;BMP180;54562;47.620;18.786;2022-09-25T05:26:49;98231.80;;;10.68
67758;BMP180;54562;47.620;18.786;2022-09-25T05:29:58;98230.60;;;10.70
67758;BMP180;54562;47.620;18.786;2022-09-25T05:33:07;98231.20;;;10.70
67758;BMP180;54562;47.620;18.786;2022-09-25T05:36:15;98233.20;;;10.80
67758;BMP180;54562;47.620;18.786;2022-09-25T05:39:24;98236.80;;;10.82
67758;BMP180;54562;47.620;18.786;2022-09-25T05:42:33;98236.20;;;10.90
67758;BMP180;54562;47.620;18.786;2022-09-25T05:45:41;98236.80;;;10.98
67758;BMP180;54562;47.620;18.786;2022-09-25T05:48:51;98240.40;;;11.00
67758;BMP180;54562;47.620;18.786;2022-09-25T05:52:01;98242.00;;;11.02
67758;BMP180;54562;47.620;18.786;2022-09-25T05:55:11;98253.40;;;11.10
67758;BMP180;54562;47.620;18.786;2022-09-25T05:58:20;98259.20;;;11.20
67758;BMP180;54562;47.620;18.786;2022-09-25T06:01:28;98259.20;;;11.20
67758;BMP180;54562;47.620;18.786;2022-09-25T06:04:36;98263.20;;;11.30
67758;BMP180;54562;47.620;18.786;2022-09-25T06:07:45;98261.00;;;11.40
67758;BMP180;54562;47.620;18.786;2022-09-25T06:11:00;98259.00;;;11.40
67758;BMP180;54562;47.620;18.786;2022-09-25T06:14:09;98259.40;;;11.50
67758;BMP180;54562;47.620;18.786;2022-09-25T06:17:19;98262.20;;;11.52
67758;BMP180;54562;47.620;18.786;2022-09-25T06:20:27;98270.80;;;11.60
67758;BMP180;54562;47.620;18.786;2022-09-25T06:23:35;98272.20;;;11.68
67758;BMP180;54562;47.620;18.786;2022-09-25T06:26:43;98275.00;;;11.70
67758;BMP180;54562;47.620;18.786;2022-09-25T06:29:53;98280.20;;;11.80
67758;BMP180;54562;47.620;18.786;2022-09-25T06:33:00;98273.80;;;11.90
67758;BMP180;54562;47.620;18.786;2022-09-25T06:36:09;98279.40;;;12.00
67758;BMP180;54562;47.620;18.786;2022-09-25T06:39:17;98289.80;;;12.00
67758;BMP180;54562;47.620;18.786;2022-09-25T06:42:25;98290.40;;;12.10
67758;BMP180;54562;47.620;18.786;2022-09-25T06:45:35;98285.00;;;12.20
67758;BMP180;54562;47.620;18.786;2022-09-25T06:48:45;98283.60;;;12.20
67758;BMP180;54562;47.620;18.786;2022-09-25T06:51:57;98281.20;;;12.30
67758;BMP180;54562;47.620;18.786;2022-09-25T06:55:07;98279.00;;;12.40
67758;BMP180;54562;47.620;18.786;2022-09-25T06:58:18;98280.60;;;12.50
67758;BMP180;54562;47.620;18.786;2022-09-25T07:01:28;98270.40;;;12.60
67758;BMP180;54562;47.620;18.786;2022-09-25T07:04:36;98271.60;;;12.70
67758;BMP180;54562;47.620;18.786;2022-09-25T07:07:44;98276.00;;;12.80
67758;BMP180;54562;47.620;18.786;2022-09-25T07:10:54;98269.60;;;12.84
67758;BMP180;54562;47.620;18.786;2022-09-25T07:14:03;98262.00;;;12.98
67758;BMP180;54562;47.620;18.786;2022-09-25T07:17:11;98266.40;;;13.10
67758;BMP180;54562;47.620;18.786;2022-09-25T07:20:19;98270.80;;;13.20
67758;BMP180;54562;47.620;18.786;2022-09-25T07:23:28;98266.40;;;13.38
67758;BMP180;54562;47.620;18.786;2022-09-25T07:26:37;98272.60;;;13.50
67758;BMP180;54562;47.620;18.786;2022-09-25T07:29:49;98273.80;;;13.60
67758;BMP180;54562;47.620;18.786;2022-09-25T07:32:58;98274.20;;;13.70
67758;BMP180;54562;47.620;18.786;2022-09-25T07:36:07;98276.60;;;13.76
67758;BMP180;54562;47.620;18.786;2022-09-25T07:39:18;98269.40;;;13.80
67758;BMP180;54562;47.620;18.786;2022-09-25T07:42:26;98268.40;;;13.82
67758;BMP180;54562;47.620;18.786;2022-09-25T07:45:35;98261.40;;;13.90
67758;BMP180;54562;47.620;18.786;2022-09-25T07:48:43;98264.40;;;13.90
67758;BMP180;54562;47.620;18.786;2022-09-25T07:51:52;98256.20;;;13.90
67758;BMP180;54562;47.620;18.786;2022-09-25T07:55:01;98258.60;;;13.90
67758;BMP180;54562;47.620;18.786;2022-09-25T07:58:10;98258.20;;;13.90
67758;BMP180;54562;47.620;18.786;2022-09-25T08:01:19;98250.80;;;13.90
67758;BMP180;54562;47.620;18.786;2022-09-25T08:04:30;98254.20;;;13.90
67758;BMP180;54562;47.620;18.786;2022-09-25T08:07:41;98251.00;;;13.90
67758;BMP180;54562;47.620;18.786;2022-09-25T08:10:50;98251.00;;;14.00
67758;BMP180;54562;47.620;18.786;2022-09-25T08:14:00;98258.40;;;14.00
67758;BMP180;54562;47.620;18.786;2022-09-25T08:17:11;98259.40;;;14.00
67758;BMP180;54562;47.620;18.786;2022-09-25T08:20:19;98260.40;;;14.00
67758;BMP180;54562;47.620;18.786;2022-09-25T08:23:28;98260.60;;;14.10
67758;BMP180;54562;47.620;18.786;2022-09-25T08:26:36;98260.40;;;14.10
67758;BMP180;54562;47.620;18.786;2022-09-25T08:29:44;98257.20;;;14.20
67758;BMP180;54562;47.620;18.786;2022-09-25T08:32:52;98257.40;;;14.20
67758;BMP180;54562;47.620;18.786;2022-09-25T08:36:03;98265.60;;;14.30
67758;BMP180;54562;47.620;18.786;2022-09-25T08:39:12;98270.60;;;14.44
67758;BMP180;54562;47.620;18.786;2022-09-25T08:42:28;98267.60;;;14.50
67758;BMP180;54562;47.620;18.786;2022-09-25T08:45:45;98270.00;;;14.60
67758;BMP180;54562;47.620;18.786;2022-09-25T08:49:15;98267.20;;;14.60
67758;BMP180;54562;47.620;18.786;2022-09-25T08:52:26;98263.60;;;14.60
67758;BMP180;54562;47.620;18.786;2022-09-25T08:55:41;98267.40;;;14.70
67758;BMP180;54562;47.620;18.786;2022-09-25T08:59:24;98265.60;;;14.70
67758;BMP180;54562;47.620;18.786;2022-09-25T09:02:41;98269.60;;;14.70
67758;BMP180;54562;47.620;18.786;2022-09-25T09:05:58;98270.60;;;14.76
67758;BMP180;54562;47.620;18.786;2022-09-25T09:09:15;98269.60;;;14.80
67758;BMP180;54562;47.620;18.786;2022-09-25T09:12:34;98272.20;;;14.90
67758;BMP180;54562;47.620;18.786;2022-09-25T09:15:51;98272.00;;;14.98
67758;BMP180;54562;47.620;18.786;2022-09-25T09:19:05;98273.40;;;15.00
67758;BMP180;54562;47.620;18.786;2022-09-25T09:22:15;98273.20;;;15.00
67758;BMP180;54562;47.620;18.786;2022-09-25T09:25:37;98271.60;;;15.00
67758;BMP180;54562;47.620;18.786;2022-09-25T09:29:38;98267.40;;;15.00
67758;BMP180;54562;47.620;18.786;2022-09-25T09:33:30;98272.60;;;15.00
67758;BMP180;54562;47.620;18.786;2022-09-25T09:36:51;98267.20;;;15.00
67758;BMP180;54562;47.620;18.786;2022-09-25T09:40:19;98267.20;;;14.98
67758;BMP180;54562;47.620;18.786;2022-09-25T09:43:42;98264.40;;;14.94
67758;BMP180;54562;47.620;18.786;2022-09-25T09:47:00;98264.20;;;14.90
67758;BMP180;54562;47.620;18.786;2022-09-25T09:50:27;98268.00;;;14.90
67758;BMP180;54562;47.620;18.786;2022-09-25T09:53:43;98264.00;;;15.00
67758;BMP180;54562;47.620;18.786;2022-09-25T09:56:56;98264.40;;;15.00
67758;BMP180;54562;47.620;18.786;2022-09-25T10:00:15;98267.80;;;15.00
67758;BMP180;54562;47.620;18.786;2022-09-25T10:03:28;98277.20;;;14.90
67758;BMP180;54562;47.620;18.786;2022-09-25T10:06:46;98275.20;;;14.90
67758;BMP180;54562;47.620;18.786;2022-09-25T10:09:56;98271.00;;;14.90
67758;BMP180;54562;47.620;18.786;2022-09-25T10:13:19;98268.60;;;14.92
67758;BMP180;54562;47.620;18.786;2022-09-25T10:16:28;98269.40;;;14.98
67758;BMP180;54562;47.620;18.786;2022-09-25T10:19:53;98268.80;;;14.90
67758;BMP180;54562;47.620;18.786;2022-09-25T10:23:08;98269.00;;;14.90
67758;BMP180;54562;47.620;18.786;2022-09-25T10:26:31;98266.20;;;14.90
67758;BMP180;54562;47.620;18.786;2022-09-25T10:29:41;98268.20;;;14.94
67758;BMP180;54562;47.620;18.786;2022-09-25T10:33:00;98266.60;;;14.92
67758;BMP180;54562;47.620;18.786;2022-09-25T10:36:13;98264.60;;;14.90
67758;BMP180;54562;47.620;18.786;2022-09-25T10:39:31;98261.60;;;14.90
67758;BMP180;54562;47.620;18.786;2022-09-25T10:43:15;98256.80;;;14.90
67758;BMP180;54562;47.620;18.786;2022-09-25T10:46:31;98253.40;;;14.80
67758;BMP180;54562;47.620;18.786;2022-09-25T10:50:10;98248.60;;;14.80
67758;BMP180;54562;47.620;18.786;2022-09-25T10:53:26;98250.00;;;14.70
67758;BMP180;54562;47.620;18.786;2022-09-25T10:56:36;98250.00;;;14.66
67758;BMP180;54562;47.620;18.786;2022-09-25T10:59:49;98249.00;;;14.70
67758;BMP180;54562;47.620;18.786;2022-09-25T11:03:03;98250.20;;;14.70
67758;BMP180;54562;47.620;18.786;2022-09-25T11:06:24;98241.60;;;14.70
67758;BMP180;54562;47.620;18.786;2022-09-25T11:09:34;98240.60;;;14.78
67758;BMP180;54562;47.620;18.786;2022-09-25T11:12:45;98240.60;;;14.80
67758;BMP180;54562;47.620;18.786;2022-09-25T11:16:00;98244.20;;;14.80
67758;BMP180;54562;47.620;18.786;2022-09-25T11:19:13;98246.40;;;14.80
67758;BMP180;54562;47.620;18.786;2022-09-25T11:22:31;98242.80;;;14.80
67758;BMP180;54562;47.620;18.786;2022-09-25T11:25:47;98241.40;;;14.80
67758;BMP180;54562;47.620;18.786;2022-09-25T11:29:04;98249.00;;;14.70
67758;BMP180;54562;47.620;18.786;2022-09-25T11:32:25;98248.00;;;14.70
67758;BMP180;54562;47.620;18.786;2022-09-25T11:35:48;98239.80;;;14.58
67758;BMP180;54562;47.620;18.786;2022-09-25T11:39:07;98234.20;;;14.40
67758;BMP180;54562;47.620;18.786;2022-09-25T11:42:40;98239.00;;;14.34
67758;BMP180;54562;47.620;18.786;2022-09-25T11:45:57;98232.60;;;14.30
67758;BMP180;54562;47.620;18.786;2022-09-25T11:49:19;98235.80;;;14.20
67758;BMP180;54562;47.620;18.786;2022-09-25T11:52:38;98234.60;;;14.20
67758;BMP180;54562;47.620;18.786;2022-09-25T11:56:12;98236.20;;;14.10
67758;BMP180;54562;47.620;18.786;2022-09-25T11:59:39;98234.00;;;14.00
67758;BMP180;54562;47.620;18.786;2022-09-25T12:03:13;98227.00;;;14.00
67758;BMP180;54562;47.620;18.786;2022-09-25T12:06:40;98228.40;;;14.00
67758;BMP180;54562;47.620;18.786;2022-09-25T12:10:12;98225.40;;;13.90
67758;BMP180;54562;47.620;18.786;2022-09-25T12:13:28;98228.00;;;13.90
67758;BMP180;54562;47.620;18.786;2022-09-25T12:16:47;98230.60;;;13.90
67758;BMP180;54562;47.620;18.786;2022-09-25T12:20:12;98230.00;;;13.86
67758;BMP180;54562;47.620;18.786;2022-09-25T12:23:30;98226.80;;;13.80
67758;BMP180;54562;47.620;18.786;2022-09-25T12:26:47;98228.20;;;13.82
67758;BMP180;54562;47.620;18.786;2022-09-25T12:30:10;98229.60;;;13.80
67758;BMP180;54562;47.620;18.786;2022-09-25T12:33:32;98227.00;;;13.80
67758;BMP180;54562;47.620;18.786;2022-09-25T12:36:50;98223.00;;;13.80
67758;BMP180;54562;47.620;18.786;2022-09-25T12:40:09;98226.80;;;13.80
67758;BMP180;54562;47.620;18.786;2022-09-25T12:43:23;98221.00;;;13.80
67758;BMP180;54562;47.620;18.786;2022-09-25T12:46:38;98215.20;;;13.80
67758;BMP180;54562;47.620;18.786;2022-09-25T12:49:54;98214.00;;;13.70
67758;BMP180;54562;47.620;18.786;2022-09-25T12:53:17;98212.00;;;13.70
67758;BMP180;54562;47.620;18.786;2022-09-25T12:56:35;98213.40;;;13.70
67758;BMP180;54562;47.620;18.786;2022-09-25T12:59:48;98209.80;;;13.70
67758;BMP180;54562;47.620;18.786;2022-09-25T13:03:03;98205.80;;;13.70
67758;BMP180;54562;47.620;18.786;2022-09-25T13:06:21;98206.40;;;13.70
67758;BMP180;54562;47.620;18.786;2022-09-25T13:09:37;98198.20;;;13.70
67758;BMP180;54562;47.620;18.786;2022-09-25T13:12:48;98196.00;;;13.70
67758;BMP180;54562;47.620;18.786;2022-09-25T13:16:03;98194.40;;;13.70
67758;BMP180;54562;47.620;18.786;2022-09-25T13:19:28;98190.60;;;13.70
67758;BMP180;54562;47.620;18.786;2022-09-25T13:22:43;98189.40;;;13.74
67758;BMP180;54562;47.620;18.786;2022-09-25T13:25:54;98195.60;;;13.80
67758;BMP180;54562;47.620;18.786;2022-09-25T13:29:21;98199.00;;;13.88
67758;BMP180;54562;47.620;18.786;2022-09-25T13:32:31;98192.80;;;13.90
67758;BMP180;54562;47.620;18.786;2022-09-25T13:35:40;98192.80;;;13.90
67758;BMP180;54562;47.620;18.786;2022-09-25T13:38:54;98188.80;;;13.90
67758;BMP180;54562;47.620;18.786;2022-09-25T13:42:25;98193.20;;;13.80
67758;BMP180;54562;47.620;18.786;2022-09-25T13:45:36;98191.40;;;13.80
67758;BMP180;54562;47.620;18.786;2022-09-25T13:48:46;98191.60;;;13.80
67758;BMP180;54562;47.620;18.786;2022-09-25T13:51:56;98190.60;;;13.78
67758;BMP180;54562;47.620;18.786;2022-09-25T13:55:18;98191.40;;;13.70
67758;BMP180;54562;47.620;18.786;2022-09-25T13:58:28;98187.20;;;13.70
67758;BMP180;54562;47.620;18.786;2022-09-25T14:01:41;98184.20;;;13.64
67758;BMP180;54562;47.620;18.786;2022-09-25T14:04:51;98182.40;;;13.60
67758;BMP180;54562;47.620;18.786;2022-09-25T14:08:07;98185.20;;;13.50
67758;BMP180;54562;47.620;18.786;2022-09-25T14:11:23;98177.80;;;13.50
67758;BMP180;54562;47.620;18.786;2022-09-25T14:14:39;98178.20;;;13.40
67758;BMP180;54562;47.620;18.786;2022-09-25T14:17:54;98176.40;;;13.36
67758;BMP180;54562;47.620;18.786;2022-09-25T14:24:48;98176.40;;;13.20
67758;BMP180;54562;47.620;18.786;2022-09-25T14:27:58;98170.80;;;13.16
67758;BMP180;54562;47.620;18.786;2022-09-25T14:31:26;98176.00;;;13.10
67758;BMP180;54562;47.620;18.786;2022-09-25T14:35:10;98176.60;;;13.10
67758;BMP180;54562;47.620;18.786;2022-09-25T14:38:38;98176.60;;;13.10
67758;BMP180;54562;47.620;18.786;2022-09-25T14:42:25;98164.20;;;13.10
67758;BMP180;54562;47.620;18.786;2022-09-25T14:46:02;98165.80;;;13.10
67758;BMP180;54562;47.620;18.786;2022-09-25T14:49:25;98163.60;;;13.08
67758;BMP180;54562;47.620;18.786;2022-09-25T14:52:37;98167.20;;;13.10
67758;BMP180;54562;47.620;18.786;2022-09-25T14:55:51;98170.60;;;13.04
67758;BMP180;54562;47.620;18.786;2022-09-25T14:59:05;98170.20;;;13.00
67758;BMP180;54562;47.620;18.786;2022-09-25T15:02:21;98170.00;;;13.00
67758;BMP180;54562;47.620;18.786;2022-09-25T15:05:33;98163.60;;;13.00
67758;BMP180;54562;47.620;18.786;2022-09-25T15:08:43;98156.00;;;13.00
67758;BMP180;54562;47.620;18.786;2022-09-25T15:11:56;98155.40;;;13.00
67758;BMP180;54562;47.620;18.786;2022-09-25T15:15:10;98155.80;;;13.00
67758;BMP180;54562;47.620;18.786;2022-09-25T15:18:22;98155.00;;;12.92
67758;BMP180;54562;47.620;18.786;2022-09-25T15:21:33;98155.80;;;12.90
67758;BMP180;54562;47.620;18.786;2022-09-25T15:24:51;98157.20;;;12.90
67758;BMP180;54562;47.620;18.786;2022-09-25T15:28:01;98152.40;;;12.90
67758;BMP180;54562;47.620;18.786;2022-09-25T15:31:12;98150.40;;;12.90
67758;BMP180;54562;47.620;18.786;2022-09-25T15:34:27;98149.00;;;12.90
67758;BMP180;54562;47.620;18.786;2022-09-25T15:37:36;98151.60;;;12.90
67758;BMP180;54562;47.620;18.786;2022-09-25T15:40:54;98146.00;;;12.82
67758;BMP180;54562;47.620;18.786;2022-09-25T15:44:19;98144.20;;;12.80
67758;BMP180;54562;47.620;18.786;2022-09-25T15:47:54;98140.60;;;12.80
67758;BMP180;54562;47.620;18.786;2022-09-25T15:51:14;98137.80;;;12.80
67758;BMP180;54562;47.620;18.786;2022-09-25T15:54:43;98135.20;;;12.72
67758;BMP180;54562;47.620;18.786;2022-09-25T15:58:05;98133.80;;;12.70
67758;BMP180;54562;47.620;18.786;2022-09-25T16:01:21;98134.20;;;12.70
67758;BMP180;54562;47.620;18.786;2022-09-25T16:04:52;98128.80;;;12.70
67758;BMP180;54562;47.620;18.786;2022-09-25T16:08:27;98136.60;;;12.70
67758;BMP180;54562;47.620;18.786;2022-09-25T16:11:37;98133.20;;;12.70
67758;BMP180;54562;47.620;18.786;2022-09-25T16:14:46;98133.80;;;12.66
67758;BMP180;54562;47.620;18.786;2022-09-25T16:17:57;98121.00;;;12.62
67758;BMP180;54562;47.620;18.786;2022-09-25T16:21:18;98117.80;;;12.60
67758;BMP180;54562;47.620;18.786;2022-09-25T16:24:31;98116.20;;;12.60
67758;BMP180;54562;47.620;18.786;2022-09-25T16:27:44;98113.80;;;12.60
67758;BMP180;54562;47.620;18.786;2022-09-25T16:31:01;98109.60;;;12.58
67758;BMP180;54562;47.620;18.786;2022-09-25T16:34:18;98098.40;;;12.50
67758;BMP180;54562;47.620;18.786;2022-09-25T16:37:35;98093.40;;;12.50
67758;BMP180;54562;47.620;18.786;2022-09-25T16:40:43;98088.60;;;12.50
67758;BMP180;54562;47.620;18.786;2022-09-25T16:44:15;98086.60;;;12.40
67758;BMP180;54562;47.620;18.786;2022-09-25T16:47:28;98084.80;;;12.40
67758;BMP180;54562;47.620;18.786;2022-09-25T16:50:41;98079.60;;;12.40
67758;BMP180;54562;47.620;18.786;2022-09-25T16:53:50;98077.80;;;12.40
67758;BMP180;54562;47.620;18.786;2022-09-25T16:56:59;98078.60;;;12.40
67758;BMP180;54562;47.620;18.786;2022-09-25T17:00:14;98079.20;;;12.40
67758;BMP180;54562;47.620;18.786;2022-09-25T17:03:24;98086.60;;;12.40
67758;BMP180;54562;47.620;18.786;2022-09-25T17:06:32;98095.60;;;12.40
67758;BMP180;54562;47.620;18.786;2022-09-25T17:09:45;98090.40;;;12.48
67758;BMP180;54562;47.620;18.786;2022-09-25T17:12:59;98085.80;;;12.50
67758;BMP180;54562;47.620;18.786;2022-09-25T17:16:09;98084.40;;;12.50
67758;BMP180;54562;47.620;18.786;2022-09-25T17:19:17;98085.80;;;12.50
67758;BMP180;54562;47.620;18.786;2022-09-25T17:22:25;98075.40;;;12.50
67758;BMP180;54562;47.620;18.786;2022-09-25T17:25:44;98076.20;;;12.50
67758;BMP180;54562;47.620;18.786;2022-09-25T17:28:54;98070.80;;;12.50
67758;BMP180;54562;47.620;18.786;2022-09-25T17:32:02;98069.40;;;12.42
67758;BMP180;54562;47.620;18.786;2022-09-25T17:35:31;98073.20;;;12.40
67758;BMP180;54562;47.620;18.786;2022-09-25T17:38:40;98065.80;;;12.40
67758;BMP180;54562;47.620;18.786;2022-09-25T17:41:49;98065.40;;;12.40
67758;BMP180;54562;47.620;18.786;2022-09-25T17:44:57;98073.20;;;12.40
67758;BMP180;54562;47.620;18.786;2022-09-25T17:48:05;98069.00;;;12.40
67758;BMP180;54562;47.620;18.786;2022-09-25T17:51:18;98076.00;;;12.40
67758;BMP180;54562;47.620;18.786;2022-09-25T17:54:27;98078.60;;;12.40
67758;BMP180;54562;47.620;18.786;2022-09-25T17:57:35;98071.40;;;12.40
67758;BMP180;54562;47.620;18.786;2022-09-25T18:00:43;98064.40;;;12.40
67758;BMP180;54562;47.620;18.786;2022-09-25T18:03:53;98065.60;;;12.40
67758;BMP180;54562;47.620;18.786;2022-09-25T18:10:10;98062.00;;;12.40
67758;BMP180;54562;47.620;18.786;2022-09-25T18:13:20;98061.40;;;12.40
67758;BMP180;54562;47.620;18.786;2022-09-25T18:16:30;98062.00;;;12.40
67758;BMP180;54562;47.620;18.786;2022-09-25T18:19:39;98061.00;;;12.40
67758;BMP180;54562;47.620;18.786;2022-09-25T18:23:04;98054.00;;;12.40
67758;BMP180;54562;47.620;18.786;2022-09-25T18:26:14;98055.40;;;12.40
67758;BMP180;54562;47.620;18.786;2022-09-25T18:29:23;98059.80;;;12.40
67758;BMP180;54562;47.620;18.786;2022-09-25T18:32:31;98054.00;;;12.40